Bailey Switch, Kentucky
Current Conditions -  °F | °C
As of 4:53 PM on Friday 31 Oct 2014 (Local Time) from KLOZ Reporting Station
Light Rain Light Rain  
Wind Chill: 42°   Ceiling: 3600
Heat Index: 46°   Visibility: 4mi
Dew Point: 43°   Wind: 8mph
Humidity: 89%   Direction: 290°WNW
Pressure: 29.89"   Gusts: NA
Location:  36.865°N, 83.9507°W
Report Text: KLOZ 312053Z AUTO 29007KT 4SM -RA BR FEW027 BKN036 OVC050 08/06 A2989 RMK AO2 RAE03B33 SLP123 P0001 60002 T00780061 58005
Loading
Personal Weather Stations






























Interactive Weather Map New forecast layout! Learn more

10-Day Weather Forecast

Advertisements
Track Severe Weather on mobile